Time;durP1;ratioP1;P1;durP2;ratioP2;P2;SDS_P1;SDS_P2;PMS_P1;PMS_P2;Temp;Humidity;BMP_temperature;BMP_pressure;BME280_temperature;BME280_humidity;BME280_pressure;Samples;Min_cycle;Max_cycle;Signal;HPM_P1;HPM_P2
2021/01/05 00:01:10;;;;;;;;;;;;;;;26.60;29.53;100283.56;5119038;27;742;-39
2021/01/05 00:03:35;;;;;;;;;;;;;;;26.49;29.65;100264.13;5118191;28;862;-42
2021/01/05 00:06:00;;;;;;;;;;;;;;;26.49;29.63;100256.06;5118800;28;2033;-43
2021/01/05 00:08:25;;;;;;;;;;;;;;;26.55;29.68;100250.91;5118074;28;1146;-39
2021/01/05 00:10:51;;;;;;;;;;;;;;;26.53;29.79;100251.13;5118462;28;814;-40
2021/01/05 00:13:16;;;;;;;;;;;;;;;26.56;29.83;100249.91;5116992;28;1496;-41
2021/01/05 00:15:41;;;;;;;;;;;;;;;26.41;29.89;100226.50;5118469;28;771;-37
2021/01/05 00:18:06;;;;;;;;;;;;;;;26.31;29.99;100221.38;5112079;28;790;-39
2021/01/05 00:20:32;;;;;;;;;;;;;;;26.20;30.17;100211.09;5119250;28;826;-38
2021/01/05 00:22:57;;;;;;;;;;;;;;;26.20;30.31;100198.47;5118380;28;989;-40
2021/01/05 00:25:24;;;;;;;;;;;;;;;26.19;30.47;100206.75;5118199;28;1898;-38
2021/01/05 00:27:49;;;;;;;;;;;;;;;26.09;30.36;100189.00;5118528;28;763;-40
2021/01/05 00:30:15;;;;;;;;;;;;;;;26.06;30.63;100175.09;5099498;28;858;-42
2021/01/05 00:32:41;;;;;;;;;;;;;;;26.08;30.38;100152.31;5097928;28;842;-38
2021/01/05 00:35:07;;;;;;;;;;;;;;;26.09;30.60;100159.34;5097221;28;720;-42
2021/01/05 00:37:32;;;;;;;;;;;;;;;25.98;30.64;100160.69;5109593;28;957;-43
2021/01/05 00:39:57;;;;;;;;;;;;;;;26.36;30.35;100132.69;5118624;28;819;-38
2021/01/05 00:42:23;;;;;;;;;;;;;;;27.08;29.14;100136.41;5117747;28;814;-38
2021/01/05 00:44:48;;;;;;;;;;;;;;;26.96;29.24;100125.31;5118011;28;869;-42
2021/01/05 00:47:13;;;;;;;;;;;;;;;26.72;29.48;100122.00;5117981;28;1964;-38
2021/01/05 00:49:39;;;;;;;;;;;;;;;27.00;29.23;100132.81;5117534;28;1066;-39
2021/01/05 00:52:04;;;;;;;;;;;;;;;27.42;28.44;100132.03;5117684;28;969;-39
2021/01/05 00:54:29;;;;;;;;;;;;;;;26.96;29.20;100130.72;5117960;28;763;-39
2021/01/05 00:57:04;;;;;;;;;;;;;;;26.64;29.41;100131.09;5117362;28;763;-39
2021/01/05 00:59:30;;;;;;;;;;;;;;;27.34;28.76;100151.94;5117948;28;858;-39
2021/01/05 01:01:58;;;;;;;;;;;;;;;27.51;28.28;100155.13;5117944;28;782;-39
2021/01/05 01:04:24;;;;;;;;;;;;;;;26.90;29.24;100146.66;5117425;28;812;-39
2021/01/05 01:06:49;;;;;;;;;;;;;;;26.87;29.62;100152.44;5117694;28;1890;-38
2021/01/05 01:09:14;;;;;;;;;;;;;;;27.55;28.40;100154.72;5117773;28;822;-39
2021/01/05 01:11:54;;;;;;;;;;;;;;;27.61;28.05;100153.94;5117131;28;783;-39
2021/01/05 01:14:19;;;;;;;;;;;;;;;27.06;28.96;100151.97;5117011;28;783;-41
2021/01/05 01:16:45;;;;;;;;;;;;;;;26.81;29.64;100152.38;5117948;28;775;-40
2021/01/05 01:19:10;;;;;;;;;;;;;;;27.54;28.53;100150.38;5117107;28;794;-38
2021/01/05 01:21:35;;;;;;;;;;;;;;;27.73;28.10;100146.09;5117263;28;1008;-38
2021/01/05 01:24:00;;;;;;;;;;;;;;;27.19;28.87;100135.88;5116086;28;1289;-37
2021/01/05 01:26:26;;;;;;;;;;;;;;;26.81;29.27;100118.13;5117074;28;1890;-38
2021/01/05 01:28:51;;;;;;;;;;;;;;;27.50;28.42;100107.56;5117507;28;791;-38
2021/01/05 01:31:16;;;;;;;;;;;;;;;27.83;27.95;100100.63;5117368;28;870;-39
2021/01/05 01:33:42;;;;;;;;;;;;;;;27.24;28.90;100108.25;5116684;28;799;-39
2021/01/05 01:36:07;;;;;;;;;;;;;;;26.89;29.22;100103.66;5117266;28;819;-38
2021/01/05 01:38:33;;;;;;;;;;;;;;;27.55;28.53;100108.81;5117079;28;957;-38
2021/01/05 01:40:58;;;;;;;;;;;;;;;27.91;27.94;100105.00;5116876;28;769;-39
2021/01/05 01:43:23;;;;;;;;;;;;;;;27.39;28.64;100100.84;5117422;28;785;-39
2021/01/05 01:45:48;;;;;;;;;;;;;;;27.08;29.02;100080.56;5117280;28;1905;-38
2021/01/05 01:48:14;;;;;;;;;;;;;;;27.30;28.88;100071.50;5116827;28;1197;-39
2021/01/05 01:50:39;;;;;;;;;;;;;;;27.87;27.73;100085.69;5115301;28;1284;-38
2021/01/05 01:53:28;;;;;;;;;;;;;;;27.50;28.32;100082.41;5116829;28;961;-38
2021/01/05 01:55:56;;;;;;;;;;;;;;;26.91;29.34;100093.50;5115369;28;521;-38
2021/01/05 01:58:40;;;;;;;;;;;;;;;27.51;28.47;100098.41;5117201;28;819;-38
2021/01/05 02:01:11;;;;;;;;;;;;;;;28.07;27.38;100105.66;5117249;28;767;-39
2021/01/05 02:03:39;;;;;;;;;;;;;;;27.31;28.54;100127.22;5116803;28;847;-37
2021/01/05 02:06:08;;;;;;;;;;;;;;;26.89;29.25;100139.56;5116873;28;1918;-38
2021/01/05 02:09:09;;;;;;;;;;;;;;;27.55;28.57;100147.47;5115777;28;818;-37
2021/01/05 02:11:44;;;;;;;;;;;;;;;27.77;27.74;100152.78;5034133;28;1181;-43
2021/01/05 02:14:13;;;;;;;;;;;;;;;27.13;28.83;100134.78;5101262;28;875;-37
2021/01/05 02:16:47;;;;;;;;;;;;;;;27.08;28.97;100129.13;5115283;28;870;-41
2021/01/05 02:19:20;;;;;;;;;;;;;;;27.77;27.95;100108.72;5116957;28;807;-42
2021/01/05 02:21:50;;;;;;;;;;;;;;;27.59;28.10;100104.69;5115649;28;1001;-39
2021/01/05 02:24:16;;;;;;;;;;;;;;;27.22;28.93;100103.06;5115269;28;811;-32
2021/01/05 02:26:50;;;;;;;;;;;;;;;28.24;27.78;100087.19;5119370;28;1970;-31
2021/01/05 02:29:25;;;;;;;;;;;;;;;28.70;26.69;100104.47;5119276;28;857;-34
2021/01/05 02:32:02;;;;;;;;;;;;;;;28.71;27.05;100095.31;5101696;28;803;-38
2021/01/05 02:34:39;;;;;;;;;;;;;;;28.67;26.89;100085.13;5120772;28;818;-39
2021/01/05 02:37:23;;;;;;;;;;;;;;;29.13;26.48;100077.16;5120389;28;913;-42
2021/01/05 02:39:53;;;;;;;;;;;;;;;29.52;25.99;100060.94;5120250;28;881;-40
2021/01/05 02:42:27;;;;;;;;;;;;;;;29.57;25.80;100078.22;5119215;28;865;-41
2021/01/05 02:45:11;;;;;;;;;;;;;;;29.01;26.03;100082.41;5120458;28;799;-42
2021/01/05 02:47:55;;;;;;;;;;;;;;;28.84;26.38;100075.50;5119555;28;1972;-41
2021/01/05 02:50:38;;;;;;;;;;;;;;;29.40;26.07;100083.28;5120167;28;1136;-40
2021/01/05 02:53:16;;;;;;;;;;;;;;;29.55;25.62;100065.91;5120398;28;1012;-45
2021/01/05 02:55:53;;;;;;;;;;;;;;;29.76;25.54;100053.13;5119398;28;791;-42
2021/01/05 02:58:37;;;;;;;;;;;;;;;29.90;25.35;100062.00;5119991;28;840;-43
2021/01/05 03:01:28;;;;;;;;;;;;;;;29.39;25.73;100056.41;5119711;28;850;-42
2021/01/05 03:03:53;;;;;;;;;;;;;;;29.05;26.28;100048.41;5118803;28;1221;-43
2021/01/05 03:06:25;;;;;;;;;;;;;;;29.56;25.69;100049.44;5119800;28;1913;-40
2021/01/05 03:08:50;;;;;;;;;;;;;;;28.86;26.30;100059.09;5119576;28;840;-41
2021/01/05 03:11:17;;;;;;;;;;;;;;;28.81;26.82;100058.88;5119680;28;1003;-42
2021/01/05 03:13:49;;;;;;;;;;;;;;;29.50;25.60;100055.75;5119071;28;776;-41
2021/01/05 03:16:25;;;;;;;;;;;;;;;29.69;25.35;100073.00;5119644;28;776;-42
2021/01/05 03:18:51;;;;;;;;;;;;;;;29.48;25.57;100057.81;5118310;28;873;-40
2021/01/05 03:21:21;;;;;;;;;;;;;;;28.77;26.55;100060.34;5119633;28;965;-40
2021/01/05 03:23:47;;;;;;;;;;;;;;;28.77;26.58;100076.56;5117822;28;811;-39
2021/01/05 03:26:13;;;;;;;;;;;;;;;29.21;26.18;100072.31;5118598;28;1917;-42
2021/01/05 03:28:38;;;;;;;;;;;;;;;29.09;26.15;100055.09;5119643;28;787;-40
2021/01/05 03:31:11;;;;;;;;;;;;;;;28.56;26.76;100068.47;5118191;28;811;-40
2021/01/05 03:33:36;;;;;;;;;;;;;;;28.72;27.06;100061.81;5119386;28;831;-40
2021/01/05 03:36:02;;;;;;;;;;;;;;;29.25;26.23;100059.19;5119397;28;743;-39
2021/01/05 03:38:27;;;;;;;;;;;;;;;29.31;25.79;100071.06;5118383;28;945;-40
2021/01/05 03:40:53;;;;;;;;;;;;;;;28.69;26.49;100067.66;5119756;28;767;-42
2021/01/05 03:43:18;;;;;;;;;;;;;;;28.69;26.75;100075.78;5119636;28;747;-43
2021/01/05 03:45:43;;;;;;;;;;;;;;;29.07;26.07;100073.41;5118764;28;1969;-42
2021/01/05 03:48:08;;;;;;;;;;;;;;;28.70;26.95;100079.28;5119264;28;1208;-41
2021/01/05 03:50:34;;;;;;;;;;;;;;;28.38;27.09;100071.81;5119043;28;1177;-42
2021/01/05 03:52:59;;;;;;;;;;;;;;;28.87;26.51;100076.13;5118710;28;965;-43
2021/01/05 03:55:24;;;;;;;;;;;;;;;29.19;25.91;100066.31;5119164;28;817;-42
2021/01/05 03:57:50;;;;;;;;;;;;;;;28.88;26.17;100067.00;5119191;28;835;-42
2021/01/05 04:00:24;;;;;;;;;;;;;;;28.43;27.29;100061.19;5118710;28;755;-42
2021/01/05 04:02:49;;;;;;;;;;;;;;;28.32;26.55;100070.75;5119319;28;797;-46
2021/01/05 04:05:15;;;;;;;;;;;;;;;27.32;28.11;100077.56;5118706;28;822;-43
2021/01/05 04:07:40;;;;;;;;;;;;;;;26.78;28.53;100062.69;5118166;28;965;-42
2021/01/05 04:10:06;;;;;;;;;;;;;;;26.13;29.51;100060.06;5118936;28;810;-38
2021/01/05 04:12:31;;;;;;;;;;;;;;;25.79;30.15;100073.25;5118569;28;855;-38
2021/01/05 04:14:56;;;;;;;;;;;;;;;27.41;27.96;100076.34;5118370;28;819;-37
2021/01/05 04:17:22;;;;;;;;;;;;;;;28.35;26.58;100066.81;5118757;28;755;-35
2021/01/05 04:19:47;;;;;;;;;;;;;;;28.68;25.63;100070.53;5118432;28;803;-38
2021/01/05 04:22:12;;;;;;;;;;;;;;;28.31;26.33;100071.78;5118034;28;1000;-34
2021/01/05 04:24:37;;;;;;;;;;;;;;;28.19;26.37;100074.28;5118529;28;770;-37
2021/01/05 04:27:03;;;;;;;;;;;;;;;28.11;26.54;100075.31;5118283;28;1901;-40
2021/01/05 04:29:28;;;;;;;;;;;;;;;28.14;26.24;100076.78;5118769;28;744;-36
2021/01/05 04:31:53;;;;;;;;;;;;;;;27.55;26.84;100065.59;5118590;28;922;-47
2021/01/05 04:34:19;;;;;;;;;;;;;;;25.68;29.77;100071.84;5117948;28;545;-50
2021/01/05 04:36:44;;;;;;;;;;;;;;;24.90;30.89;100078.47;5118131;28;917;-36
2021/01/05 04:39:09;;;;;;;;;;;;;;;24.65;31.48;100082.25;5117919;28;751;-48
2021/01/05 04:41:38;;;;;;;;;;;;;;;24.46;31.83;100088.94;5118197;28;877;-35
2021/01/05 04:44:03;;;;;;;;;;;;;;;24.18;32.20;100079.59;5116988;28;767;-51
2021/01/05 04:46:47;;;;;;;;;;;;;;;24.20;32.49;100084.78;5115993;28;1894;-41
2021/01/05 04:49:12;;;;;;;;;;;;;;;24.01;32.52;100096.81;5117086;28;1298;-37
2021/01/05 04:51:43;;;;;;;;;;;;;;;23.63;33.21;100097.53;5117783;28;996;-42
2021/01/05 04:54:08;;;;;;;;;;;;;;;23.70;33.33;100093.97;5117539;28;799;-46
2021/01/05 04:56:44;;;;;;;;;;;;;;;23.83;33.30;100096.09;5118004;28;787;-42
2021/01/05 04:59:09;;;;;;;;;;;;;;;23.93;33.18;100101.22;5115965;28;792;-40
2021/01/05 05:01:35;;;;;;;;;;;;;;;25.49;30.82;100094.81;5115694;28;870;-34
2021/01/05 05:04:06;;;;;;;;;;;;;;;26.34;29.40;100091.59;5117588;28;755;-38
2021/01/05 05:06:34;;;;;;;;;;;;;;;23.22;33.19;100083.25;5117332;28;1906;-40
2021/01/05 05:09:03;;;;;;;;;;;;;;;22.83;34.77;100088.38;5117535;28;755;-43
2021/01/05 05:11:30;;;;;;;;;;;;;;;24.13;32.69;100090.00;5117758;28;815;-37
2021/01/05 05:14:02;;;;;;;;;;;;;;;24.33;32.24;100087.72;5116512;28;775;-33
2021/01/05 05:16:46;;;;;;;;;;;;;;;24.54;32.06;100096.13;5117276;28;858;-32
2021/01/05 05:19:14;;;;;;;;;;;;;;;25.60;30.28;100090.78;5117645;28;748;-35
2021/01/05 05:21:40;;;;;;;;;;;;;;;25.92;29.75;100088.72;5116872;28;949;-34
2021/01/05 05:24:11;;;;;;;;;;;;;;;26.17;29.46;100088.34;5116278;28;755;-34
2021/01/05 05:26:39;;;;;;;;;;;;;;;25.18;30.71;100088.59;5117531;28;1905;-34
2021/01/05 05:29:28;;;;;;;;;;;;;;;25.46;30.56;100085.25;5117042;28;750;-33
2021/01/05 05:31:53;;;;;;;;;;;;;;;25.78;30.48;100088.56;5078820;28;1251;-35
2021/01/05 05:37:21;;;;;;;;;;;;;;;25.86;30.14;100090.28;5115926;28;914;-35
2021/01/05 05:40:07;;;;;;;;;;;;;;;26.11;29.50;100094.50;5117325;28;763;-39
2021/01/05 05:42:45;;;;;;;;;;;;;;;25.46;30.21;100101.41;5115898;28;779;-41
2021/01/05 05:45:10;;;;;;;;;;;;;;;25.19;30.26;100107.25;5115722;28;782;-37
2021/01/05 05:47:44;;;;;;;;;;;;;;;25.79;29.55;100109.06;5116805;28;1963;-45
2021/01/05 05:50:19;;;;;;;;;;;;;;;26.16;28.91;100114.44;5115655;28;1282;-41
2021/01/05 05:52:46;;;;;;;;;;;;;;;25.66;29.91;100112.44;5117034;28;1008;-34
2021/01/05 05:55:36;;;;;;;;;;;;;;;25.85;29.50;100122.81;5115512;28;1161;-39
2021/01/05 05:58:01;;;;;;;;;;;;;;;26.09;28.92;100129.69;5116851;28;866;-36
2021/01/05 06:00:28;;;;;;;;;;;;;;;25.38;30.29;100128.41;5114519;28;866;-36
2021/01/05 06:02:54;;;;;;;;;;;;;;;25.67;30.21;100124.06;5118665;28;874;-37
2021/01/05 06:05:30;;;;;;;;;;;;;;;26.01;29.30;100127.97;5120681;28;798;-42
2021/01/05 06:07:55;;;;;;;;;;;;;;;25.40;30.26;100147.91;5120385;28;953;-40
2021/01/05 06:10:21;;;;;;;;;;;;;;;25.00;31.06;100143.63;5119959;28;894;-34
2021/01/05 06:12:46;;;;;;;;;;;;;;;25.86;29.92;100143.38;5121437;28;947;-33
2021/01/05 06:15:12;;;;;;;;;;;;;;;25.94;29.64;100139.72;5120944;28;758;-39
2021/01/05 06:17:40;;;;;;;;;;;;;;;25.31;30.64;100142.63;5120749;28;772;-39
2021/01/05 06:20:05;;;;;;;;;;;;;;;25.23;31.04;100147.25;5120766;28;835;-39
2021/01/05 06:22:30;;;;;;;;;;;;;;;25.99;29.69;100153.44;5120169;28;948;-37
2021/01/05 06:24:56;;;;;;;;;;;;;;;25.82;30.38;100158.22;5120421;28;791;-36
2021/01/05 06:27:21;;;;;;;;;;;;;;;25.68;30.48;100168.81;5121100;28;1901;-42
2021/01/05 06:29:46;;;;;;;;;;;;;;;26.24;29.68;100156.59;5120164;28;869;-33
2021/01/05 06:32:12;;;;;;;;;;;;;;;26.15;29.73;100158.63;5120587;28;771;-39
2021/01/05 06:34:37;;;;;;;;;;;;;;;25.66;30.97;100160.94;5120605;28;823;-42
2021/01/05 06:37:02;;;;;;;;;;;;;;;25.98;30.24;100166.09;5119780;28;925;-38
2021/01/05 06:39:27;;;;;;;;;;;;;;;26.32;29.80;100161.06;5120366;28;855;-37
2021/01/05 06:41:53;;;;;;;;;;;;;;;25.76;30.57;100160.63;5120541;28;760;-42
2021/01/05 06:44:18;;;;;;;;;;;;;;;25.62;30.76;100170.41;5119606;28;833;-37
2021/01/05 06:46:43;;;;;;;;;;;;;;;26.35;29.85;100168.78;5120463;28;1971;-41
2021/01/05 06:49:08;;;;;;;;;;;;;;;26.65;29.23;100159.72;5118000;28;1241;-45
2021/01/05 06:51:34;;;;;;;;;;;;;;;25.83;30.56;100168.81;5118655;28;830;-38
2021/01/05 06:53:59;;;;;;;;;;;;;;;25.78;30.87;100174.75;5120197;28;826;-42
2021/01/05 06:56:24;;;;;;;;;;;;;;;26.67;29.24;100170.31;5119918;28;787;-38
2021/01/05 06:58:49;;;;;;;;;;;;;;;26.06;30.35;100173.22;5117904;28;811;-43
2021/01/05 07:01:15;;;;;;;;;;;;;;;25.89;30.84;100161.84;5119930;28;803;-42
2021/01/05 07:03:40;;;;;;;;;;;;;;;25.91;30.73;100168.69;5119954;28;811;-41
2021/01/05 07:06:05;;;;;;;;;;;;;;;25.63;31.18;100166.69;5119337;28;1986;-40
2021/01/05 07:08:31;;;;;;;;;;;;;;;25.58;31.10;100160.16;5119739;28;1086;-43
2021/01/05 07:10:59;;;;;;;;;;;;;;;25.83;30.87;100160.72;5120210;28;779;-40
2021/01/05 07:13:24;;;;;;;;;;;;;;;26.33;29.96;100160.06;5118331;28;806;-41
2021/01/05 07:15:49;;;;;;;;;;;;;;;26.32;30.23;100171.00;5120132;28;818;-45
2021/01/05 07:18:15;;;;;;;;;;;;;;;26.21;30.08;100177.75;5119809;28;810;-45
2021/01/05 07:20:40;;;;;;;;;;;;;;;26.57;29.61;100184.13;5119652;28;817;-39
2021/01/05 07:23:05;;;;;;;;;;;;;;;26.11;30.47;100183.44;5119617;28;945;-39
2021/01/05 07:25:30;;;;;;;;;;;;;;;26.01;30.57;100184.56;5118532;28;1968;-40
2021/01/05 07:27:56;;;;;;;;;;;;;;;26.08;30.84;100186.50;5119139;28;826;-41
2021/01/05 07:30:21;;;;;;;;;;;;;;;26.33;30.00;100192.41;5119605;28;770;-42
2021/01/05 07:32:46;;;;;;;;;;;;;;;26.09;30.48;100189.00;5119576;28;1373;-35
2021/01/05 07:35:12;;;;;;;;;;;;;;;26.39;29.89;100186.25;5119305;28;759;-40
2021/01/05 07:37:39;;;;;;;;;;;;;;;26.59;29.79;100196.38;5119319;28;1012;-39
2021/01/05 07:40:04;;;;;;;;;;;;;;;26.59;29.18;100192.88;5117652;28;831;-40
2021/01/05 07:42:30;;;;;;;;;;;;;;;26.22;29.92;100203.66;5119330;27;716;-39
2021/01/05 07:44:57;;;;;;;;;;;;;;;26.15;29.84;100215.22;5119219;28;747;-39
2021/01/05 07:47:22;;;;;;;;;;;;;;;26.19;29.86;100210.28;5118716;28;1976;-44
2021/01/05 07:49:47;;;;;;;;;;;;;;;26.63;28.63;100208.47;5117442;28;1074;-41
2021/01/05 07:52:15;;;;;;;;;;;;;;;25.96;29.68;100211.25;5118893;28;1024;-42
2021/01/05 07:54:41;;;;;;;;;;;;;;;25.94;29.82;100210.63;5118797;28;933;-42
2021/01/05 07:57:06;;;;;;;;;;;;;;;26.57;29.12;100205.72;5118161;28;769;-41
2021/01/05 07:59:34;;;;;;;;;;;;;;;26.86;28.91;100204.72;5118905;28;803;-41
2021/01/05 08:02:00;;;;;;;;;;;;;;;26.69;29.33;100211.44;5118749;28;807;-44
2021/01/05 08:04:25;;;;;;;;;;;;;;;26.72;29.43;100202.94;5118484;28;727;-42
2021/01/05 08:06:50;;;;;;;;;;;;;;;27.13;29.08;100215.78;5117782;28;1914;-42
2021/01/05 08:09:15;;;;;;;;;;;;;;;26.46;29.82;100207.88;5119008;28;752;-42
2021/01/05 08:11:41;;;;;;;;;;;;;;;26.48;29.88;100215.78;5118264;28;826;-39
2021/01/05 08:14:06;;;;;;;;;;;;;;;27.17;28.86;100216.22;5118884;28;873;-36
2021/01/05 08:16:32;;;;;;;;;;;;;;;26.63;30.02;100218.44;5117149;28;835;-36
2021/01/05 08:18:57;;;;;;;;;;;;;;;26.74;29.69;100217.09;5116390;28;842;-37
2021/01/05 08:21:23;;;;;;;;;;;;;;;27.07;29.28;100213.03;5117565;28;917;-35
2021/01/05 08:23:48;;;;;;;;;;;;;;;26.66;29.69;100215.34;5118430;28;738;-36
2021/01/05 08:26:13;;;;;;;;;;;;;;;26.77;29.64;100216.69;5118455;28;1968;-38
2021/01/05 08:28:39;;;;;;;;;;;;;;;26.85;29.74;100231.91;5117886;28;1009;-40
2021/01/05 08:31:05;;;;;;;;;;;;;;;27.54;28.76;100248.47;5118782;28;767;-40
2021/01/05 08:33:30;;;;;;;;;;;;;;;27.57;28.34;100266.97;5118270;28;835;-41
2021/01/05 08:35:55;;;;;;;;;;;;;;;27.51;28.81;100265.91;5117496;28;890;-41
2021/01/05 08:38:20;;;;;;;;;;;;;;;26.93;29.75;100264.16;5117810;28;988;-40
2021/01/05 08:40:46;;;;;;;;;;;;;;;26.93;29.83;100274.13;5118059;28;847;-37
2021/01/05 08:43:11;;;;;;;;;;;;;;;27.43;28.96;100290.34;5117625;28;775;-49
2021/01/05 08:45:38;;;;;;;;;;;;;;;27.17;29.33;100297.22;5118160;28;1921;-35
2021/01/05 08:48:04;;;;;;;;;;;;;;;27.00;29.75;100296.63;5118153;28;1098;-38
2021/01/05 08:50:30;;;;;;;;;;;;;;;27.20;29.59;100302.22;5117449;28;1144;-39
2021/01/05 08:52:56;;;;;;;;;;;;;;;27.65;28.69;100292.16;5117805;27;1019;-43
2021/01/05 08:55:21;;;;;;;;;;;;;;;27.41;28.77;100300.50;5117934;28;731;-41
2021/01/05 08:57:46;;;;;;;;;;;;;;;26.87;29.93;100302.72;5117129;28;727;-40
2021/01/05 09:00:12;;;;;;;;;;;;;;;26.83;29.65;100294.19;5117018;28;1080;-38
2021/01/05 09:02:37;;;;;;;;;;;;;;;27.24;28.73;100308.09;5115394;28;850;-43
2021/01/05 09:05:03;;;;;;;;;;;;;;;27.55;28.82;100308.72;5116264;28;851;-41
2021/01/05 09:07:28;;;;;;;;;;;;;;;27.35;29.16;100312.09;5117648;28;1968;-39
2021/01/05 09:09:53;;;;;;;;;;;;;;;27.92;27.94;100314.81;5117637;28;805;-39
2021/01/05 09:12:19;;;;;;;;;;;;;;;28.04;27.99;100308.84;5116756;28;885;-39
2021/01/05 09:14:44;;;;;;;;;;;;;;;27.46;28.71;100319.66;5117538;28;830;-40
2021/01/05 09:17:09;;;;;;;;;;;;;;;26.96;29.64;100323.16;5117184;28;853;-38
2021/01/05 09:19:34;;;;;;;;;;;;;;;27.30;29.18;100314.56;5117117;28;811;-40
2021/01/05 09:22:00;;;;;;;;;;;;;;;28.17;27.79;100313.50;5115991;28;1498;-42
2021/01/05 09:24:25;;;;;;;;;;;;;;;27.19;29.31;100316.78;5117217;28;739;-44
2021/01/05 09:26:54;;;;;;;;;;;;;;;26.77;29.99;100317.38;5117158;28;1909;-45
2021/01/05 09:29:20;;;;;;;;;;;;;;;26.96;29.76;100327.75;5117232;28;506;-39
2021/01/05 09:31:46;;;;;;;;;;;;;;;27.10;29.48;100320.63;5117696;28;797;-38
2021/01/05 09:34:11;;;;;;;;;;;;;;;27.20;29.46;100329.22;5117050;28;811;-46
2021/01/05 09:36:37;;;;;;;;;;;;;;;27.14;29.31;100330.03;5116609;28;917;-39
2021/01/05 09:39:05;;;;;;;;;;;;;;;27.41;29.16;100326.72;5117132;28;782;-38
2021/01/05 09:41:31;;;;;;;;;;;;;;;27.39;29.40;100326.91;5116878;28;775;-35
2021/01/05 09:43:56;;;;;;;;;;;;;;;27.84;28.25;100320.41;5115508;28;903;-35
2021/01/05 09:46:22;;;;;;;;;;;;;;;27.54;28.57;100323.28;5116832;28;1972;-40
2021/01/05 09:48:47;;;;;;;;;;;;;;;27.61;28.75;100324.97;5116905;28;851;-37
2021/01/05 09:51:19;;;;;;;;;;;;;;;28.11;28.17;100328.66;5116895;28;1113;-34
2021/01/05 09:53:45;;;;;;;;;;;;;;;28.22;27.46;100322.69;5116904;28;822;-38
2021/01/05 09:56:10;;;;;;;;;;;;;;;28.15;27.86;100320.97;5116933;28;815;-38
2021/01/05 09:58:35;;;;;;;;;;;;;;;28.19;27.92;100309.56;5117197;28;835;-39
2021/01/05 10:01:00;;;;;;;;;;;;;;;27.90;28.32;100307.94;5116969;28;791;-35
2021/01/05 10:03:26;;;;;;;;;;;;;;;28.13;28.10;100313.06;5116728;28;699;-40
2021/01/05 10:05:51;;;;;;;;;;;;;;;28.14;27.65;100311.19;5117139;28;1972;-37
2021/01/05 10:08:16;;;;;;;;;;;;;;;28.07;27.96;100312.00;5116705;28;980;-38
2021/01/05 10:10:41;;;;;;;;;;;;;;;28.04;28.02;100322.38;5116727;28;847;-41
2021/01/05 10:13:07;;;;;;;;;;;;;;;28.04;27.89;100327.78;5116901;28;744;-36
2021/01/05 10:15:32;;;;;;;;;;;;;;;27.95;28.09;100314.44;5116636;28;527;-40
2021/01/05 10:17:57;;;;;;;;;;;;;;;27.81;28.32;100324.31;5116743;28;813;-40
2021/01/05 10:20:23;;;;;;;;;;;;;;;27.80;28.59;100321.81;5116886;28;752;-36
2021/01/05 10:22:48;;;;;;;;;;;;;;;27.62;29.07;100323.13;5116780;28;956;-38
2021/01/05 10:25:14;;;;;;;;;;;;;;;27.53;28.77;100327.84;5116176;28;1538;-38
2021/01/05 10:27:39;;;;;;;;;;;;;;;26.27;31.25;100331.50;5116330;28;1905;-37
2021/01/05 10:30:05;;;;;;;;;;;;;;;27.49;29.24;100330.09;5116910;28;802;-41
2021/01/05 10:32:30;;;;;;;;;;;;;;;28.00;28.72;100324.63;5116870;28;743;-36
2021/01/05 10:34:56;;;;;;;;;;;;;;;27.66;29.00;100337.09;5116535;28;729;-39
2021/01/05 10:37:21;;;;;;;;;;;;;;;27.78;27.33;100323.91;5116823;28;1000;-40
2021/01/05 10:39:46;;;;;;;;;;;;;;;27.52;28.72;100326.16;5116477;28;865;-41
2021/01/05 10:42:12;;;;;;;;;;;;;;;27.73;28.57;100330.72;5116572;28;823;-35
2021/01/05 10:44:37;;;;;;;;;;;;;;;27.74;28.48;100318.03;5116684;28;763;-42
2021/01/05 10:47:03;;;;;;;;;;;;;;;27.82;28.56;100309.78;5117917;28;1910;-42
2021/01/05 10:49:29;;;;;;;;;;;;;;;27.96;28.12;100320.69;5120157;28;1094;-39
2021/01/05 10:51:55;;;;;;;;;;;;;;;28.09;27.82;100320.72;5120262;28;1024;-39
2021/01/05 10:54:20;;;;;;;;;;;;;;;28.06;27.83;100321.13;5120745;28;830;-39
2021/01/05 10:56:46;;;;;;;;;;;;;;;28.06;28.03;100320.31;5119938;28;749;-40
2021/01/05 10:59:12;;;;;;;;;;;;;;;28.03;27.99;100324.22;5120266;28;829;-38
2021/01/05 11:01:37;;;;;;;;;;;;;;;28.08;28.00;100323.63;5120258;28;799;-42
2021/01/05 11:04:02;;;;;;;;;;;;;;;27.69;28.54;100332.16;5119721;28;838;-42
2021/01/05 11:06:28;;;;;;;;;;;;;;;27.77;28.80;100344.66;5119809;28;1906;-42
2021/01/05 11:08:53;;;;;;;;;;;;;;;27.72;28.64;100336.31;5120041;28;814;-42
2021/01/05 11:11:18;;;;;;;;;;;;;;;27.77;28.62;100339.25;5119535;28;878;-41
2021/01/05 11:13:44;;;;;;;;;;;;;;;27.95;28.36;100329.81;5119968;28;810;-42
2021/01/05 11:16:09;;;;;;;;;;;;;;;27.99;28.67;100325.69;5119939;28;787;-41
2021/01/05 11:18:34;;;;;;;;;;;;;;;28.10;28.53;100329.69;5119537;28;751;-42
2021/01/05 11:21:00;;;;;;;;;;;;;;;28.16;28.17;100328.06;5120200;28;791;-39
2021/01/05 11:23:25;;;;;;;;;;;;;;;28.05;28.66;100332.97;5119308;28;984;-39
2021/01/05 11:25:50;;;;;;;;;;;;;;;28.05;28.18;100334.84;5119368;28;1966;-35
2021/01/05 11:28:15;;;;;;;;;;;;;;;28.13;28.54;100340.09;5119768;28;807;-38
2021/01/05 11:30:41;;;;;;;;;;;;;;;28.21;28.43;100341.81;5119482;28;798;-41
2021/01/05 11:33:06;;;;;;;;;;;;;;;28.32;28.42;100337.69;5119292;28;794;-42
2021/01/05 11:35:31;;;;;;;;;;;;;;;28.36;28.26;100337.09;5119760;28;760;-42
2021/01/05 11:37:57;;;;;;;;;;;;;;;28.38;28.12;100334.19;5119007;28;953;-34
2021/01/05 11:40:22;;;;;;;;;;;;;;;28.41;27.98;100339.22;5119112;28;833;-39
2021/01/05 11:42:48;;;;;;;;;;;;;;;28.34;28.35;100344.59;5119405;28;743;-36
2021/01/05 11:45:13;;;;;;;;;;;;;;;28.28;28.27;100344.56;5119550;28;806;-34
2021/01/05 11:47:39;;;;;;;;;;;;;;;27.93;28.96;100348.06;5116382;28;1906;-35
2021/01/05 11:50:07;;;;;;;;;;;;;;;27.97;28.77;100357.47;5118809;28;1079;-33
2021/01/05 11:52:33;;;;;;;;;;;;;;;27.95;28.51;100356.84;5119047;28;1012;-36
2021/01/05 11:54:58;;;;;;;;;;;;;;;27.75;28.98;100363.78;5118746;28;723;-32
2021/01/05 11:57:23;;;;;;;;;;;;;;;28.21;28.43;100369.66;5119217;28;983;-35
2021/01/05 11:59:49;;;;;;;;;;;;;;;28.54;27.78;100370.91;5118708;28;771;-38
2021/01/05 12:02:14;;;;;;;;;;;;;;;27.93;28.41;100370.56;5116283;28;937;-35
2021/01/05 12:04:39;;;;;;;;;;;;;;;27.89;28.54;100374.69;5114878;28;885;-44
2021/01/05 12:07:05;;;;;;;;;;;;;;;27.71;29.43;100377.91;5115950;28;1910;-38
2021/01/05 12:09:30;;;;;;;;;;;;;;;28.10;28.49;100387.31;5116035;28;870;-37
2021/01/05 12:11:56;;;;;;;;;;;;;;;28.01;28.52;100396.59;5117161;28;833;-35
2021/01/05 12:14:22;;;;;;;;;;;;;;;28.06;28.53;100410.34;5117908;28;827;-33
2021/01/05 12:16:48;;;;;;;;;;;;;;;27.77;29.12;100411.38;5117829;28;787;-35
2021/01/05 12:19:23;;;;;;;;;;;;;;;28.24;28.15;100415.25;5117796;28;831;-34
2021/01/05 12:21:48;;;;;;;;;;;;;;;28.46;27.73;100412.47;5117781;28;953;-33
2021/01/05 12:24:17;;;;;;;;;;;;;;;28.36;28.26;100420.16;5118052;28;814;-33
2021/01/05 12:26:42;;;;;;;;;;;;;;;28.46;28.13;100422.50;5117895;28;1972;-34
2021/01/05 12:29:09;;;;;;;;;;;;;;;28.11;28.82;100434.13;5118129;28;775;-33
2021/01/05 12:31:38;;;;;;;;;;;;;;;28.66;27.57;100438.00;5116936;28;995;-36
2021/01/05 12:34:03;;;;;;;;;;;;;;;28.46;28.10;100444.13;5117546;28;895;-34
2021/01/05 12:36:32;;;;;;;;;;;;;;;28.38;27.88;100442.41;5117623;28;977;-33
2021/01/05 12:38:57;;;;;;;;;;;;;;;28.48;28.02;100442.03;5117380;28;787;-36
2021/01/05 12:41:33;;;;;;;;;;;;;;;27.02;30.13;100445.75;5117779;28;787;-34
2021/01/05 12:44:02;;;;;;;;;;;;;;;27.58;29.40;100452.38;5117676;28;767;-35
2021/01/05 12:46:31;;;;;;;;;;;;;;;28.51;27.50;100452.47;5117234;28;1971;-37
2021/01/05 12:48:56;;;;;;;;;;;;;;;28.56;27.65;100468.13;5116051;28;903;-34
2021/01/05 12:51:28;;;;;;;;;;;;;;;28.92;26.94;100468.91;5117720;28;1074;-37
2021/01/05 12:53:54;;;;;;;;;;;;;;;29.13;26.77;100472.56;5117154;28;785;-34
2021/01/05 12:56:19;;;;;;;;;;;;;;;29.08;27.21;100474.00;5117960;28;801;-37
2021/01/05 12:58:44;;;;;;;;;;;;;;;29.06;26.69;100475.25;5117651;28;790;-32